sensor_id;sensor_type;location;lat;lon;timestamp;temperature;humidity
71173;DHT22;58875;51.996;4.504;2022-07-10T00:01:26;15.60;70.40
71173;DHT22;58875;51.996;4.504;2022-07-10T00:03:52;15.61;70.07
71173;DHT22;58875;51.996;4.504;2022-07-10T00:06:19;15.61;70.24
71173;DHT22;58875;51.996;4.504;2022-07-10T00:08:47;15.57;69.95
71173;DHT22;58875;51.996;4.504;2022-07-10T00:11:13;15.53;70.33
71173;DHT22;58875;51.996;4.504;2022-07-10T00:13:38;15.51;70.20
71173;DHT22;58875;51.996;4.504;2022-07-10T00:16:04;15.51;70.38
71173;DHT22;58875;51.996;4.504;2022-07-10T00:18:30;15.46;70.69
71173;DHT22;58875;51.996;4.504;2022-07-10T00:20:56;15.41;70.09
71173;DHT22;58875;51.996;4.504;2022-07-10T00:23:21;15.43;70.95
71173;DHT22;58875;51.996;4.504;2022-07-10T00:25:47;15.43;70.54
71173;DHT22;58875;51.996;4.504;2022-07-10T00:28:13;15.41;70.91
71173;DHT22;58875;51.996;4.504;2022-07-10T00:30:38;15.39;70.92
71173;DHT22;58875;51.996;4.504;2022-07-10T00:33:04;15.36;71.36
71173;DHT22;58875;51.996;4.504;2022-07-10T00:35:30;15.39;71.15
71173;DHT22;58875;51.996;4.504;2022-07-10T00:37:56;15.36;70.72
71173;DHT22;58875;51.996;4.504;2022-07-10T00:40:24;15.33;70.99
71173;DHT22;58875;51.996;4.504;2022-07-10T00:42:49;15.36;71.12
71173;DHT22;58875;51.996;4.504;2022-07-10T00:45:15;15.31;71.00
71173;DHT22;58875;51.996;4.504;2022-07-10T00:47:40;15.36;70.92
71173;DHT22;58875;51.996;4.504;2022-07-10T00:50:06;15.27;71.13
71173;DHT22;58875;51.996;4.504;2022-07-10T00:52:35;15.33;71.01
71173;DHT22;58875;51.996;4.504;2022-07-10T00:55:05;15.27;70.73
71173;DHT22;58875;51.996;4.504;2022-07-10T00:57:33;15.31;70.62
71173;DHT22;58875;51.996;4.504;2022-07-10T00:59:59;15.34;70.27
71173;DHT22;58875;51.996;4.504;2022-07-10T01:02:24;15.31;70.98
71173;DHT22;58875;51.996;4.504;2022-07-10T01:04:56;15.33;71.03
71173;DHT22;58875;51.996;4.504;2022-07-10T01:07:21;15.31;71.64
71173;DHT22;58875;51.996;4.504;2022-07-10T01:09:47;15.22;71.76
71173;DHT22;58875;51.996;4.504;2022-07-10T01:12:13;15.24;71.39
71173;DHT22;58875;51.996;4.504;2022-07-10T01:14:39;15.26;71.21
71173;DHT22;58875;51.996;4.504;2022-07-10T01:17:08;15.22;71.01
71173;DHT22;58875;51.996;4.504;2022-07-10T01:19:34;15.19;71.33
71173;DHT22;58875;51.996;4.504;2022-07-10T01:21:59;15.19;71.34
71173;DHT22;58875;51.996;4.504;2022-07-10T01:24:25;15.19;71.22
71173;DHT22;58875;51.996;4.504;2022-07-10T01:26:50;15.18;71.53
71173;DHT22;58875;51.996;4.504;2022-07-10T01:29:16;15.16;71.54
71173;DHT22;58875;51.996;4.504;2022-07-10T01:31:41;15.14;71.95
71173;DHT22;58875;51.996;4.504;2022-07-10T01:34:08;15.13;72.01
71173;DHT22;58875;51.996;4.504;2022-07-10T01:36:35;15.09;72.45
71173;DHT22;58875;51.996;4.504;2022-07-10T01:39:01;15.06;72.42
71173;DHT22;58875;51.996;4.504;2022-07-10T01:41:26;15.02;72.34
71173;DHT22;58875;51.996;4.504;2022-07-10T01:43:53;15.00;72.43
71173;DHT22;58875;51.996;4.504;2022-07-10T01:46:19;15.03;72.72
71173;DHT22;58875;51.996;4.504;2022-07-10T01:48:45;14.99;72.94
71173;DHT22;58875;51.996;4.504;2022-07-10T01:51:11;15.03;73.24
71173;DHT22;58875;51.996;4.504;2022-07-10T01:53:38;15.00;72.84
71173;DHT22;58875;51.996;4.504;2022-07-10T01:56:10;15.03;73.45
71173;DHT22;58875;51.996;4.504;2022-07-10T01:58:37;14.98;73.47
71173;DHT22;58875;51.996;4.504;2022-07-10T02:01:04;14.96;72.76
71173;DHT22;58875;51.996;4.504;2022-07-10T02:03:30;14.92;73.58
71173;DHT22;58875;51.996;4.504;2022-07-10T02:06:14;14.98;73.10
71173;DHT22;58875;51.996;4.504;2022-07-10T02:08:40;15.03;72.85
71173;DHT22;58875;51.996;4.504;2022-07-10T02:11:05;15.07;73.42
71173;DHT22;58875;51.996;4.504;2022-07-10T02:13:31;15.00;73.08
71173;DHT22;58875;51.996;4.504;2022-07-10T02:15:58;14.96;73.41
71173;DHT22;58875;51.996;4.504;2022-07-10T02:18:24;14.96;72.95
71173;DHT22;58875;51.996;4.504;2022-07-10T02:20:51;14.92;73.12
71173;DHT22;58875;51.996;4.504;2022-07-10T02:23:17;14.89;73.46
71173;DHT22;58875;51.996;4.504;2022-07-10T02:25:43;14.92;73.31
71173;DHT22;58875;51.996;4.504;2022-07-10T02:28:09;14.92;73.11
71173;DHT22;58875;51.996;4.504;2022-07-10T02:30:35;14.95;73.84
71173;DHT22;58875;51.996;4.504;2022-07-10T02:33:02;14.99;73.84
71173;DHT22;58875;51.996;4.504;2022-07-10T02:35:27;15.03;73.69
71173;DHT22;58875;51.996;4.504;2022-07-10T02:37:53;15.06;73.54
71173;DHT22;58875;51.996;4.504;2022-07-10T02:40:19;15.14;72.91
71173;DHT22;58875;51.996;4.504;2022-07-10T02:42:44;15.13;72.75
71173;DHT22;58875;51.996;4.504;2022-07-10T02:45:10;15.10;72.53
71173;DHT22;58875;51.996;4.504;2022-07-10T02:47:35;15.11;72.66
71173;DHT22;58875;51.996;4.504;2022-07-10T02:50:01;15.13;72.68
71173;DHT22;58875;51.996;4.504;2022-07-10T02:52:27;15.10;72.77
71173;DHT22;58875;51.996;4.504;2022-07-10T02:54:56;15.09;72.81
71173;DHT22;58875;51.996;4.504;2022-07-10T02:57:22;15.06;73.01
71173;DHT22;58875;51.996;4.504;2022-07-10T02:59:47;15.00;73.72
71173;DHT22;58875;51.996;4.504;2022-07-10T03:02:13;14.98;74.02
71173;DHT22;58875;51.996;4.504;2022-07-10T03:04:38;15.04;74.27
71173;DHT22;58875;51.996;4.504;2022-07-10T03:07:04;15.09;74.24
71173;DHT22;58875;51.996;4.504;2022-07-10T03:09:30;15.13;73.98
71173;DHT22;58875;51.996;4.504;2022-07-10T03:11:56;15.20;73.87
71173;DHT22;58875;51.996;4.504;2022-07-10T03:14:21;15.26;73.91
71173;DHT22;58875;51.996;4.504;2022-07-10T03:16:47;15.31;73.66
71173;DHT22;58875;51.996;4.504;2022-07-10T03:19:12;15.37;73.53
71173;DHT22;58875;51.996;4.504;2022-07-10T03:21:38;15.44;73.32
71173;DHT22;58875;51.996;4.504;2022-07-10T03:24:03;15.50;73.24
71173;DHT22;58875;51.996;4.504;2022-07-10T03:26:29;15.51;73.19
71173;DHT22;58875;51.996;4.504;2022-07-10T03:28:55;15.50;73.35
71173;DHT22;58875;51.996;4.504;2022-07-10T03:31:22;15.53;73.40
71173;DHT22;58875;51.996;4.504;2022-07-10T03:33:47;15.57;73.20
71173;DHT22;58875;51.996;4.504;2022-07-10T03:36:13;15.57;73.29
71173;DHT22;58875;51.996;4.504;2022-07-10T03:38:39;15.62;73.16
71173;DHT22;58875;51.996;4.504;2022-07-10T03:41:05;15.70;73.10
71173;DHT22;58875;51.996;4.504;2022-07-10T03:43:31;15.77;72.87
71173;DHT22;58875;51.996;4.504;2022-07-10T03:45:57;15.78;72.92
71173;DHT22;58875;51.996;4.504;2022-07-10T03:48:23;15.78;73.17
71173;DHT22;58875;51.996;4.504;2022-07-10T03:50:52;15.82;73.36
71173;DHT22;58875;51.996;4.504;2022-07-10T03:53:18;15.90;73.00
71173;DHT22;58875;51.996;4.504;2022-07-10T03:55:44;15.95;73.11
71173;DHT22;58875;51.996;4.504;2022-07-10T03:58:10;15.97;72.81
71173;DHT22;58875;51.996;4.504;2022-07-10T04:00:35;16.06;72.60
71173;DHT22;58875;51.996;4.504;2022-07-10T04:03:06;16.08;72.26
71173;DHT22;58875;51.996;4.504;2022-07-10T04:05:33;16.09;72.57
71173;DHT22;58875;51.996;4.504;2022-07-10T04:08:00;16.12;72.63
71173;DHT22;58875;51.996;4.504;2022-07-10T04:10:28;16.13;72.44
71173;DHT22;58875;51.996;4.504;2022-07-10T04:12:54;16.21;72.47
71173;DHT22;58875;51.996;4.504;2022-07-10T04:15:21;16.22;72.18
71173;DHT22;58875;51.996;4.504;2022-07-10T04:17:48;16.21;72.37
71173;DHT22;58875;51.996;4.504;2022-07-10T04:20:14;16.30;71.91
71173;DHT22;58875;51.996;4.504;2022-07-10T04:22:43;16.28;72.06
71173;DHT22;58875;51.996;4.504;2022-07-10T04:25:11;16.21;72.08
71173;DHT22;58875;51.996;4.504;2022-07-10T04:27:37;16.22;72.00
71173;DHT22;58875;51.996;4.504;2022-07-10T04:30:03;16.23;72.24
71173;DHT22;58875;51.996;4.504;2022-07-10T04:32:29;16.32;71.92
71173;DHT22;58875;51.996;4.504;2022-07-10T04:34:55;16.34;71.94
71173;DHT22;58875;51.996;4.504;2022-07-10T04:37:21;16.34;71.94
71173;DHT22;58875;51.996;4.504;2022-07-10T04:39:46;16.36;72.05
71173;DHT22;58875;51.996;4.504;2022-07-10T04:42:12;16.43;72.16
71173;DHT22;58875;51.996;4.504;2022-07-10T04:44:37;16.45;71.59
71173;DHT22;58875;51.996;4.504;2022-07-10T04:47:05;16.49;71.76
71173;DHT22;58875;51.996;4.504;2022-07-10T04:49:31;16.50;71.87
71173;DHT22;58875;51.996;4.504;2022-07-10T04:51:56;16.57;71.96
71173;DHT22;58875;51.996;4.504;2022-07-10T04:54:23;16.55;71.51
71173;DHT22;58875;51.996;4.504;2022-07-10T04:56:49;16.62;71.82
71173;DHT22;58875;51.996;4.504;2022-07-10T04:59:14;16.64;71.80
71173;DHT22;58875;51.996;4.504;2022-07-10T05:01:40;16.70;71.48
71173;DHT22;58875;51.996;4.504;2022-07-10T05:04:06;16.64;71.91
71173;DHT22;58875;51.996;4.504;2022-07-10T05:06:32;16.66;71.92
71173;DHT22;58875;51.996;4.504;2022-07-10T05:08:57;16.71;71.86
71173;DHT22;58875;51.996;4.504;2022-07-10T05:11:23;16.77;72.05
71173;DHT22;58875;51.996;4.504;2022-07-10T05:13:49;16.91;72.18
71173;DHT22;58875;51.996;4.504;2022-07-10T05:16:15;16.95;71.98
71173;DHT22;58875;51.996;4.504;2022-07-10T05:18:41;17.01;71.46
71173;DHT22;58875;51.996;4.504;2022-07-10T05:21:07;17.00;71.70
71173;DHT22;58875;51.996;4.504;2022-07-10T05:23:33;17.03;71.49
71173;DHT22;58875;51.996;4.504;2022-07-10T05:25:59;17.11;71.57
71173;DHT22;58875;51.996;4.504;2022-07-10T05:28:24;17.18;70.47
71173;DHT22;58875;51.996;4.504;2022-07-10T05:30:50;17.21;70.75
71173;DHT22;58875;51.996;4.504;2022-07-10T05:33:17;17.20;70.25
71173;DHT22;58875;51.996;4.504;2022-07-10T05:35:43;17.27;70.76
71173;DHT22;58875;51.996;4.504;2022-07-10T05:38:08;17.30;70.25
71173;DHT22;58875;51.996;4.504;2022-07-10T05:40:34;17.36;70.29
71173;DHT22;58875;51.996;4.504;2022-07-10T05:43:00;17.35;70.08
71173;DHT22;58875;51.996;4.504;2022-07-10T05:45:27;17.32;70.01
71173;DHT22;58875;51.996;4.504;2022-07-10T05:47:53;17.45;70.14
71173;DHT22;58875;51.996;4.504;2022-07-10T05:50:18;17.52;69.82
71173;DHT22;58875;51.996;4.504;2022-07-10T05:52:44;17.66;69.39
71173;DHT22;58875;51.996;4.504;2022-07-10T05:55:09;17.58;68.30
71173;DHT22;58875;51.996;4.504;2022-07-10T05:57:36;17.59;68.35
71173;DHT22;58875;51.996;4.504;2022-07-10T06:00:06;17.53;68.87
71173;DHT22;58875;51.996;4.504;2022-07-10T06:02:32;17.66;68.48
71173;DHT22;58875;51.996;4.504;2022-07-10T06:04:58;17.69;68.75
71173;DHT22;58875;51.996;4.504;2022-07-10T06:07:25;17.66;68.29
71173;DHT22;58875;51.996;4.504;2022-07-10T06:09:50;17.71;68.02
71173;DHT22;58875;51.996;4.504;2022-07-10T06:12:16;17.61;68.37
71173;DHT22;58875;51.996;4.504;2022-07-10T06:14:42;17.69;68.05
71173;DHT22;58875;51.996;4.504;2022-07-10T06:17:08;17.82;68.31
71173;DHT22;58875;51.996;4.504;2022-07-10T06:19:33;17.87;67.61
71173;DHT22;58875;51.996;4.504;2022-07-10T06:21:59;17.94;67.52
71173;DHT22;58875;51.996;4.504;2022-07-10T06:24:43;17.85;67.33
71173;DHT22;58875;51.996;4.504;2022-07-10T06:27:10;17.87;67.93
71173;DHT22;58875;51.996;4.504;2022-07-10T06:29:36;17.89;67.70
71173;DHT22;58875;51.996;4.504;2022-07-10T06:32:02;17.97;68.36
71173;DHT22;58875;51.996;4.504;2022-07-10T06:34:28;18.06;67.47
71173;DHT22;58875;51.996;4.504;2022-07-10T06:36:53;18.07;67.27
71173;DHT22;58875;51.996;4.504;2022-07-10T06:39:20;18.16;67.07
71173;DHT22;58875;51.996;4.504;2022-07-10T06:41:45;18.34;67.28
71173;DHT22;58875;51.996;4.504;2022-07-10T06:44:11;18.41;66.90
71173;DHT22;58875;51.996;4.504;2022-07-10T06:46:36;18.48;66.50
71173;DHT22;58875;51.996;4.504;2022-07-10T06:49:02;18.60;66.85
71173;DHT22;58875;51.996;4.504;2022-07-10T06:51:28;18.78;66.20
71173;DHT22;58875;51.996;4.504;2022-07-10T06:53:55;18.91;65.50
71173;DHT22;58875;51.996;4.504;2022-07-10T06:56:21;18.82;65.10
71173;DHT22;58875;51.996;4.504;2022-07-10T06:58:49;18.58;65.70
71173;DHT22;58875;51.996;4.504;2022-07-10T07:01:15;18.57;66.12
71173;DHT22;58875;51.996;4.504;2022-07-10T07:03:40;18.54;66.36
71173;DHT22;58875;51.996;4.504;2022-07-10T07:06:06;18.51;66.79
71173;DHT22;58875;51.996;4.504;2022-07-10T07:08:32;18.67;66.56
71173;DHT22;58875;51.996;4.504;2022-07-10T07:10:57;18.75;65.11
71173;DHT22;58875;51.996;4.504;2022-07-10T07:13:23;18.84;66.15
71173;DHT22;58875;51.996;4.504;2022-07-10T07:15:49;19.06;66.41
71173;DHT22;58875;51.996;4.504;2022-07-10T07:18:24;19.32;63.98
71173;DHT22;58875;51.996;4.504;2022-07-10T07:21:00;19.43;64.21
71173;DHT22;58875;51.996;4.504;2022-07-10T07:23:44;19.33;64.17
71173;DHT22;58875;51.996;4.504;2022-07-10T07:26:10;19.18;63.92
71173;DHT22;58875;51.996;4.504;2022-07-10T07:28:35;18.94;64.30
71173;DHT22;58875;51.996;4.504;2022-07-10T07:31:01;18.78;64.85
71173;DHT22;58875;51.996;4.504;2022-07-10T07:33:26;19.01;65.48
71173;DHT22;58875;51.996;4.504;2022-07-10T07:35:52;19.23;63.85
71173;DHT22;58875;51.996;4.504;2022-07-10T07:38:17;19.29;64.29
71173;DHT22;58875;51.996;4.504;2022-07-10T07:40:44;19.43;64.17
71173;DHT22;58875;51.996;4.504;2022-07-10T07:43:10;19.45;64.59
71173;DHT22;58875;51.996;4.504;2022-07-10T07:45:35;19.59;63.85
71173;DHT22;58875;51.996;4.504;2022-07-10T07:48:01;19.60;63.01
71173;DHT22;58875;51.996;4.504;2022-07-10T07:50:35;19.90;62.37
71173;DHT22;58875;51.996;4.504;2022-07-10T07:53:03;20.15;62.78
71173;DHT22;58875;51.996;4.504;2022-07-10T07:55:30;20.20;61.78
71173;DHT22;58875;51.996;4.504;2022-07-10T07:57:57;20.03;61.41
71173;DHT22;58875;51.996;4.504;2022-07-10T08:00:25;19.90;63.43
71173;DHT22;58875;51.996;4.504;2022-07-10T08:03:00;19.67;63.08
71173;DHT22;58875;51.996;4.504;2022-07-10T08:05:26;19.54;64.16
71173;DHT22;58875;51.996;4.504;2022-07-10T08:08:03;19.69;63.56
71173;DHT22;58875;51.996;4.504;2022-07-10T08:10:34;19.87;62.48
71173;DHT22;58875;51.996;4.504;2022-07-10T08:13:00;19.95;62.77
71173;DHT22;58875;51.996;4.504;2022-07-10T08:15:29;19.75;62.54
71173;DHT22;58875;51.996;4.504;2022-07-10T08:17:57;19.80;62.82
71173;DHT22;58875;51.996;4.504;2022-07-10T08:20:28;20.04;62.43
71173;DHT22;58875;51.996;4.504;2022-07-10T08:22:57;20.22;62.27
71173;DHT22;58875;51.996;4.504;2022-07-10T08:25:23;20.57;61.56
71173;DHT22;58875;51.996;4.504;2022-07-10T08:27:49;20.85;61.83
71173;DHT22;58875;51.996;4.504;2022-07-10T08:30:18;20.96;59.51
71173;DHT22;58875;51.996;4.504;2022-07-10T08:32:43;20.94;60.84
71173;DHT22;58875;51.996;4.504;2022-07-10T08:35:10;20.68;60.18
71173;DHT22;58875;51.996;4.504;2022-07-10T08:37:39;20.42;60.79
71173;DHT22;58875;51.996;4.504;2022-07-10T08:40:09;20.39;60.62
71173;DHT22;58875;51.996;4.504;2022-07-10T08:42:35;20.14;62.67
71173;DHT22;58875;51.996;4.504;2022-07-10T08:45:01;20.13;62.39
71173;DHT22;58875;51.996;4.504;2022-07-10T08:47:27;20.18;63.10
71173;DHT22;58875;51.996;4.504;2022-07-10T08:49:57;20.20;62.33
71173;DHT22;58875;51.996;4.504;2022-07-10T08:52:34;20.28;61.38
71173;DHT22;58875;51.996;4.504;2022-07-10T08:55:13;20.34;60.31
71173;DHT22;58875;51.996;4.504;2022-07-10T08:57:41;20.44;60.90
71173;DHT22;58875;51.996;4.504;2022-07-10T09:00:15;20.39;60.43
71173;DHT22;58875;51.996;4.504;2022-07-10T09:02:45;20.34;60.76
71173;DHT22;58875;51.996;4.504;2022-07-10T09:05:13;20.57;59.96
71173;DHT22;58875;51.996;4.504;2022-07-10T09:07:40;20.59;60.03
71173;DHT22;58875;51.996;4.504;2022-07-10T09:10:11;20.55;61.22
71173;DHT22;58875;51.996;4.504;2022-07-10T09:12:59;20.61;60.47
71173;DHT22;58875;51.996;4.504;2022-07-10T09:15:29;20.62;60.57
71173;DHT22;58875;51.996;4.504;2022-07-10T09:18:02;20.73;61.87
71173;DHT22;58875;51.996;4.504;2022-07-10T09:20:43;20.66;59.72
71173;DHT22;58875;51.996;4.504;2022-07-10T09:23:18;20.61;60.83
71173;DHT22;58875;51.996;4.504;2022-07-10T09:25:49;20.32;60.67
71173;DHT22;58875;51.996;4.504;2022-07-10T09:28:22;20.04;61.23
71173;DHT22;58875;51.996;4.504;2022-07-10T09:30:49;19.98;61.31
71173;DHT22;58875;51.996;4.504;2022-07-10T09:33:25;20.14;62.24
71173;DHT22;58875;51.996;4.504;2022-07-10T09:41:17;20.34;60.52
71173;DHT22;58875;51.996;4.504;2022-07-10T09:43:56;20.32;60.07
71173;DHT22;58875;51.996;4.504;2022-07-10T09:46:25;20.46;60.78
71173;DHT22;58875;51.996;4.504;2022-07-10T09:49:06;20.55;60.08
71173;DHT22;58875;51.996;4.504;2022-07-10T09:51:34;20.59;57.66
71173;DHT22;58875;51.996;4.504;2022-07-10T09:54:02;20.46;57.52
71173;DHT22;58875;51.996;4.504;2022-07-10T09:56:53;20.03;58.49
71173;DHT22;58875;51.996;4.504;2022-07-10T09:59:20;19.97;58.51
71173;DHT22;58875;51.996;4.504;2022-07-10T10:01:48;20.41;58.78
71173;DHT22;58875;51.996;4.504;2022-07-10T10:04:16;20.59;58.97
71173;DHT22;58875;51.996;4.504;2022-07-10T10:06:45;20.92;56.38
71173;DHT22;58875;51.996;4.504;2022-07-10T10:12:04;21.27;55.42
71173;DHT22;58875;51.996;4.504;2022-07-10T10:14:31;21.30;55.89
71173;DHT22;58875;51.996;4.504;2022-07-10T10:17:00;21.00;56.34
71173;DHT22;58875;51.996;4.504;2022-07-10T10:19:26;21.11;55.93
71173;DHT22;58875;51.996;4.504;2022-07-10T10:22:14;21.26;56.58
71173;DHT22;58875;51.996;4.504;2022-07-10T10:24:43;21.43;56.97
71173;DHT22;58875;51.996;4.504;2022-07-10T10:27:11;21.45;55.65
71173;DHT22;58875;51.996;4.504;2022-07-10T10:29:38;21.66;56.15
71173;DHT22;58875;51.996;4.504;2022-07-10T10:32:07;21.73;55.17
71173;DHT22;58875;51.996;4.504;2022-07-10T10:34:42;21.88;55.17
71173;DHT22;58875;51.996;4.504;2022-07-10T10:39:53;21.45;56.78
71173;DHT22;58875;51.996;4.504;2022-07-10T10:42:46;21.44;54.53
71173;DHT22;58875;51.996;4.504;2022-07-10T10:45:21;21.26;54.72
71173;DHT22;58875;51.996;4.504;2022-07-10T10:58:40;21.75;55.76
71173;DHT22;58875;51.996;4.504;2022-07-10T11:04:13;21.88;53.52
71173;DHT22;58875;51.996;4.504;2022-07-10T11:09:29;21.28;54.72
71173;DHT22;58875;51.996;4.504;2022-07-10T11:12:06;21.66;52.14
71173;DHT22;58875;51.996;4.504;2022-07-10T11:14:38;21.99;52.81
71173;DHT22;58875;51.996;4.504;2022-07-10T11:17:07;22.60;51.60
71173;DHT22;58875;51.996;4.504;2022-07-10T11:19:34;22.74;50.57
71173;DHT22;58875;51.996;4.504;2022-07-10T11:22:20;22.60;50.59
71173;DHT22;58875;51.996;4.504;2022-07-10T11:29:59;22.22;51.14
71173;DHT22;58875;51.996;4.504;2022-07-10T11:32:27;22.49;50.50
71173;DHT22;58875;51.996;4.504;2022-07-10T11:34:54;22.77;50.90
71173;DHT22;58875;51.996;4.504;2022-07-10T11:37:19;23.01;48.39
71173;DHT22;58875;51.996;4.504;2022-07-10T11:39:45;22.95;49.50
71173;DHT22;58875;51.996;4.504;2022-07-10T11:42:11;23.24;47.73
71173;DHT22;58875;51.996;4.504;2022-07-10T11:44:39;23.25;48.85
71173;DHT22;58875;51.996;4.504;2022-07-10T11:49:33;23.08;45.73
71173;DHT22;58875;51.996;4.504;2022-07-10T11:52:03;22.93;48.21
71173;DHT22;58875;51.996;4.504;2022-07-10T11:54:29;23.34;46.91
71173;DHT22;58875;51.996;4.504;2022-07-10T12:00:06;23.77;47.82
71173;DHT22;58875;51.996;4.504;2022-07-10T12:02:41;23.63;45.45
71173;DHT22;58875;51.996;4.504;2022-07-10T12:05:06;23.54;45.59
71173;DHT22;58875;51.996;4.504;2022-07-10T12:07:33;23.54;45.31
71173;DHT22;58875;51.996;4.504;2022-07-10T12:10:00;23.69;45.02
71173;DHT22;58875;51.996;4.504;2022-07-10T12:12:28;23.56;45.48
71173;DHT22;58875;51.996;4.504;2022-07-10T12:14:54;23.54;47.33
71173;DHT22;58875;51.996;4.504;2022-07-10T12:17:19;23.72;44.19
71173;DHT22;58875;51.996;4.504;2022-07-10T12:19:45;23.62;45.67
71173;DHT22;58875;51.996;4.504;2022-07-10T12:22:12;23.51;45.28
71173;DHT22;58875;51.996;4.504;2022-07-10T12:24:38;23.38;46.71
71173;DHT22;58875;51.996;4.504;2022-07-10T12:27:07;23.62;46.37
71173;DHT22;58875;51.996;4.504;2022-07-10T12:29:34;23.65;46.01
71173;DHT22;58875;51.996;4.504;2022-07-10T12:32:03;23.93;47.45
71173;DHT22;58875;51.996;4.504;2022-07-10T12:34:52;24.23;45.56
71173;DHT22;58875;51.996;4.504;2022-07-10T12:37:24;24.12;45.82
71173;DHT22;58875;51.996;4.504;2022-07-10T12:40:01;24.05;46.49
71173;DHT22;58875;51.996;4.504;2022-07-10T12:42:31;23.93;47.44
71173;DHT22;58875;51.996;4.504;2022-07-10T12:45:13;23.26;46.31
71173;DHT22;58875;51.996;4.504;2022-07-10T12:47:59;23.04;48.20
71173;DHT22;58875;51.996;4.504;2022-07-10T12:50:25;23.26;48.07
71173;DHT22;58875;51.996;4.504;2022-07-10T12:53:08;23.51;48.64
71173;DHT22;58875;51.996;4.504;2022-07-10T12:55:35;23.67;47.59
71173;DHT22;58875;51.996;4.504;2022-07-10T12:58:08;23.77;47.66
71173;DHT22;58875;51.996;4.504;2022-07-10T13:00:44;23.75;46.89
71173;DHT22;58875;51.996;4.504;2022-07-10T13:03:18;23.96;49.07
71173;DHT22;58875;51.996;4.504;2022-07-10T13:05:46;23.86;47.19
71173;DHT22;58875;51.996;4.504;2022-07-10T13:08:22;23.92;48.48
71173;DHT22;58875;51.996;4.504;2022-07-10T13:10:54;23.82;49.71
71173;DHT22;58875;51.996;4.504;2022-07-10T13:13:29;23.93;50.48
71173;DHT22;58875;51.996;4.504;2022-07-10T13:16:17;23.87;50.42
71173;DHT22;58875;51.996;4.504;2022-07-10T13:18:49;23.76;49.13
71173;DHT22;58875;51.996;4.504;2022-07-10T13:21:14;23.70;49.91
71173;DHT22;58875;51.996;4.504;2022-07-10T13:23:42;23.45;50.86
71173;DHT22;58875;51.996;4.504;2022-07-10T13:26:11;23.38;51.03
71173;DHT22;58875;51.996;4.504;2022-07-10T13:28:37;23.49;50.96
71173;DHT22;58875;51.996;4.504;2022-07-10T13:31:12;23.52;52.60
71173;DHT22;58875;51.996;4.504;2022-07-10T13:33:38;23.66;51.65
71173;DHT22;58875;51.996;4.504;2022-07-10T13:36:04;23.61;52.51
71173;DHT22;58875;51.996;4.504;2022-07-10T13:38:34;23.39;51.79
71173;DHT22;58875;51.996;4.504;2022-07-10T13:41:02;23.70;52.10
71173;DHT22;58875;51.996;4.504;2022-07-10T13:43:36;23.75;50.48
71173;DHT22;58875;51.996;4.504;2022-07-10T13:46:02;23.39;52.54
71173;DHT22;58875;51.996;4.504;2022-07-10T13:48:33;23.25;52.79
71173;DHT22;58875;51.996;4.504;2022-07-10T13:51:06;23.32;52.79
71173;DHT22;58875;51.996;4.504;2022-07-10T13:53:37;23.34;52.30
71173;DHT22;58875;51.996;4.504;2022-07-10T13:56:13;23.56;51.38
71173;DHT22;58875;51.996;4.504;2022-07-10T13:58:39;23.62;51.89
71173;DHT22;58875;51.996;4.504;2022-07-10T14:01:15;23.61;51.70
71173;DHT22;58875;51.996;4.504;2022-07-10T14:03:43;23.66;52.72
71173;DHT22;58875;51.996;4.504;2022-07-10T14:06:19;23.72;52.47
71173;DHT22;58875;51.996;4.504;2022-07-10T14:09:08;23.89;52.84
71173;DHT22;58875;51.996;4.504;2022-07-10T14:14:46;24.09;51.51
71173;DHT22;58875;51.996;4.504;2022-07-10T14:17:18;23.80;51.99
71173;DHT22;58875;51.996;4.504;2022-07-10T14:19:44;24.05;52.35
71173;DHT22;58875;51.996;4.504;2022-07-10T14:22:21;24.12;52.45
71173;DHT22;58875;51.996;4.504;2022-07-10T14:24:57;24.06;51.66
71173;DHT22;58875;51.996;4.504;2022-07-10T14:27:26;23.58;53.30
71173;DHT22;58875;51.996;4.504;2022-07-10T14:29:53;23.59;53.20
71173;DHT22;58875;51.996;4.504;2022-07-10T14:32:35;23.45;52.86
71173;DHT22;58875;51.996;4.504;2022-07-10T14:35:01;23.67;55.47
71173;DHT22;58875;51.996;4.504;2022-07-10T14:37:33;23.86;52.57
71173;DHT22;58875;51.996;4.504;2022-07-10T14:40:05;23.90;53.35
71173;DHT22;58875;51.996;4.504;2022-07-10T14:43:10;24.03;52.80
71173;DHT22;58875;51.996;4.504;2022-07-10T14:45:45;23.93;52.25
71173;DHT22;58875;51.996;4.504;2022-07-10T14:48:16;23.96;52.99
71173;DHT22;58875;51.996;4.504;2022-07-10T14:50:45;23.96;53.30
71173;DHT22;58875;51.996;4.504;2022-07-10T14:53:10;24.02;52.28
71173;DHT22;58875;51.996;4.504;2022-07-10T14:55:46;23.99;52.78
71173;DHT22;58875;51.996;4.504;2022-07-10T14:58:22;23.66;52.81
71173;DHT22;58875;51.996;4.504;2022-07-10T15:00:51;23.58;53.29
71173;DHT22;58875;51.996;4.504;2022-07-10T15:03:20;23.70;53.65
71173;DHT22;58875;51.996;4.504;2022-07-10T15:05:49;23.63;53.80
71173;DHT22;58875;51.996;4.504;2022-07-10T15:08:23;23.92;52.35
71173;DHT22;58875;51.996;4.504;2022-07-10T15:10:52;24.02;52.59
71173;DHT22;58875;51.996;4.504;2022-07-10T15:13:39;24.18;52.27
71173;DHT22;58875;51.996;4.504;2022-07-10T15:16:05;24.65;52.02
71173;DHT22;58875;51.996;4.504;2022-07-10T15:18:31;24.51;51.83
71173;DHT22;58875;51.996;4.504;2022-07-10T15:20:59;24.55;51.30
71173;DHT22;58875;51.996;4.504;2022-07-10T15:23:27;24.27;52.25
71173;DHT22;58875;51.996;4.504;2022-07-10T15:28:46;23.66;52.57
71173;DHT22;58875;51.996;4.504;2022-07-10T15:31:13;23.58;53.89
71173;DHT22;58875;51.996;4.504;2022-07-10T15:33:48;23.55;54.32
71173;DHT22;58875;51.996;4.504;2022-07-10T15:36:16;23.63;53.86
71173;DHT22;58875;51.996;4.504;2022-07-10T15:38:44;23.56;54.27
71173;DHT22;58875;51.996;4.504;2022-07-10T15:41:15;23.28;54.85
71173;DHT22;58875;51.996;4.504;2022-07-10T15:43:47;22.94;55.57
71173;DHT22;58875;51.996;4.504;2022-07-10T15:46:13;22.91;56.59
71173;DHT22;58875;51.996;4.504;2022-07-10T15:48:45;22.77;56.16
71173;DHT22;58875;51.996;4.504;2022-07-10T15:51:18;22.73;56.30
71173;DHT22;58875;51.996;4.504;2022-07-10T15:53:55;22.81;56.93
71173;DHT22;58875;51.996;4.504;2022-07-10T15:56:23;22.98;56.56
71173;DHT22;58875;51.996;4.504;2022-07-10T15:58:49;22.76;56.27
71173;DHT22;58875;51.996;4.504;2022-07-10T16:01:35;22.70;57.20
71173;DHT22;58875;51.996;4.504;2022-07-10T16:04:01;22.68;57.35
71173;DHT22;58875;51.996;4.504;2022-07-10T16:06:29;22.77;57.68
71173;DHT22;58875;51.996;4.504;2022-07-10T16:08:58;22.61;56.36
71173;DHT22;58875;51.996;4.504;2022-07-10T16:11:25;22.43;57.45
71173;DHT22;58875;51.996;4.504;2022-07-10T16:13:53;22.32;58.48
71173;DHT22;58875;51.996;4.504;2022-07-10T16:16:19;22.16;58.65
71173;DHT22;58875;51.996;4.504;2022-07-10T16:19:04;22.12;58.76
71173;DHT22;58875;51.996;4.504;2022-07-10T16:21:35;22.15;59.04
71173;DHT22;58875;51.996;4.504;2022-07-10T16:24:02;22.01;60.82